SDFO2: Deep Fork River at Stroud

Data processed at Tue May 21 2019 23:50


All information presented herein is the property of the government of the United States of America and may be revised or deleted at any time without prior notice.
Dissemination of this information without the expressed written consent of the Public Affairs Office, Tulsa District U.S. Army Corps of Engineers is strictly prohibited.
These data are gathered electronically and, as presented, have not undergone any form of quality control. These data are not guaranteed to be valid or correct.
Go to home page.
Go to station list.
Go to home page.

Upstream stations:

Downstream station:
Previous Day
Next Day
Current Day
    
SHEF ID:       SDFO2     Deep Fork River at Stroud
STATION TYPE:  

               PRECIP     STAGE  RIV-FLOW   VOLTAGE  BAT-LOAD
                   in        ft       cfs      volt      volt
              Ccp-Rev   Ccp-Rev   Ccp-Rev   Ccp-Rev   Ccp-Rev
(US/Central)
05/21 00:00      0.06     17.40      3602     12.57     12.49
05/21 01:00      0.90     18.08      4248     12.57     12.49
05/21 02:00      0.14     18.68      4818     12.57     12.49
05/21 03:00      0.07     20.31      6369     12.57     12.49
05/21 04:00      0.01     21.42      7467     12.57     12.49
05/21 05:00      0.01     22.14      8260     12.57     12.49
05/21 06:00      1.09     22.63      9015     12.57     12.49
05/21 07:00      0.03     23.06      9692     12.57     12.49
05/21 08:00      0.11     23.44     10290     12.57     12.49
05/21 09:00      0.07     23.88     10982     12.57     12.49
05/21 10:00      0.02     24.27     11596     12.65     12.49
05/21 11:00      0.00     24.60     12115     12.57     12.49
05/21 12:00      0.00     24.89     12572     12.65     12.57
05/21 13:00      0.00     25.18     13028     12.73     12.65
05/21 14:00      0.00     25.45     13453     13.21     13.05
05/21 15:00      0.00     25.68     13815     13.21     13.13
05/21 16:00      0.00     25.94     14224     13.21     13.05
05/21 17:00      0.00     26.19     14618     13.05     12.97
05/21 18:00      0.00     26.47     15058     12.97     12.89
05/21 19:00      0.00     26.74     15483     12.89     12.81
05/21 20:00      0.00     26.97      ----     12.81     12.73
05/21 21:00      0.00     27.17      ----     12.73     12.65
05/21 22:00      0.00     27.31      ----     12.73     12.65
05/21 23:00      0.00     27.46      ----     12.73     12.65